sensor_id;sensor_type;location;lat;lon;timestamp;P1;durP1;ratioP1;P2;durP2;ratioP2
64061;SDS011;50308;47.438;-1.528;2023-12-20T00:02:18;12.38;;;3.50;;
64061;SDS011;50308;47.438;-1.528;2023-12-20T00:04:44;11.25;;;2.47;;
64061;SDS011;50308;47.438;-1.528;2023-12-20T00:07:09;12.60;;;2.90;;
64061;SDS011;50308;47.438;-1.528;2023-12-20T00:09:35;12.07;;;2.72;;
64061;SDS011;50308;47.438;-1.528;2023-12-20T00:12:01;12.65;;;2.90;;
64061;SDS011;50308;47.438;-1.528;2023-12-20T00:14:26;13.90;;;2.72;;
64061;SDS011;50308;47.438;-1.528;2023-12-20T00:16:52;7.10;;;2.67;;
64061;SDS011;50308;47.438;-1.528;2023-12-20T00:19:18;7.03;;;2.08;;
64061;SDS011;50308;47.438;-1.528;2023-12-20T00:21:44;10.20;;;2.85;;
64061;SDS011;50308;47.438;-1.528;2023-12-20T00:24:09;7.88;;;1.90;;
64061;SDS011;50308;47.438;-1.528;2023-12-20T00:26:35;8.57;;;2.45;;
64061;SDS011;50308;47.438;-1.528;2023-12-20T00:29:00;8.38;;;2.50;;
64061;SDS011;50308;47.438;-1.528;2023-12-20T00:31:26;7.97;;;2.40;;
64061;SDS011;50308;47.438;-1.528;2023-12-20T00:33:52;8.07;;;2.60;;
64061;SDS011;50308;47.438;-1.528;2023-12-20T00:36:18;8.35;;;1.98;;
64061;SDS011;50308;47.438;-1.528;2023-12-20T00:38:43;6.97;;;2.13;;
64061;SDS011;50308;47.438;-1.528;2023-12-20T00:41:09;9.35;;;2.42;;
64061;SDS011;50308;47.438;-1.528;2023-12-20T00:43:34;14.93;;;4.65;;
64061;SDS011;50308;47.438;-1.528;2023-12-20T00:46:00;11.23;;;3.20;;
64061;SDS011;50308;47.438;-1.528;2023-12-20T00:48:26;8.18;;;3.90;;
64061;SDS011;50308;47.438;-1.528;2023-12-20T00:50:56;12.88;;;3.30;;
64061;SDS011;50308;47.438;-1.528;2023-12-20T00:53:22;11.77;;;3.78;;
64061;SDS011;50308;47.438;-1.528;2023-12-20T00:55:48;9.27;;;3.22;;
64061;SDS011;50308;47.438;-1.528;2023-12-20T00:58:15;6.95;;;2.30;;
64061;SDS011;50308;47.438;-1.528;2023-12-20T01:00:41;7.45;;;3.30;;
64061;SDS011;50308;47.438;-1.528;2023-12-20T01:03:09;7.38;;;2.90;;
64061;SDS011;50308;47.438;-1.528;2023-12-20T01:05:35;7.25;;;2.03;;
64061;SDS011;50308;47.438;-1.528;2023-12-20T01:08:00;9.05;;;2.85;;
64061;SDS011;50308;47.438;-1.528;2023-12-20T01:10:28;7.63;;;2.33;;
64061;SDS011;50308;47.438;-1.528;2023-12-20T01:12:54;7.35;;;2.00;;
64061;SDS011;50308;47.438;-1.528;2023-12-20T01:15:20;4.30;;;1.60;;
64061;SDS011;50308;47.438;-1.528;2023-12-20T01:17:45;8.70;;;1.70;;
64061;SDS011;50308;47.438;-1.528;2023-12-20T01:20:12;6.78;;;1.98;;
64061;SDS011;50308;47.438;-1.528;2023-12-20T01:22:38;9.27;;;2.00;;
64061;SDS011;50308;47.438;-1.528;2023-12-20T01:25:04;4.65;;;1.67;;
64061;SDS011;50308;47.438;-1.528;2023-12-20T01:27:30;5.65;;;1.90;;
64061;SDS011;50308;47.438;-1.528;2023-12-20T01:29:56;5.30;;;1.50;;
64061;SDS011;50308;47.438;-1.528;2023-12-20T01:32:22;5.55;;;2.03;;
64061;SDS011;50308;47.438;-1.528;2023-12-20T01:34:47;5.90;;;2.05;;
64061;SDS011;50308;47.438;-1.528;2023-12-20T01:37:13;9.77;;;2.08;;
64061;SDS011;50308;47.438;-1.528;2023-12-20T01:39:39;6.03;;;1.55;;
64061;SDS011;50308;47.438;-1.528;2023-12-20T01:42:05;6.07;;;1.27;;
64061;SDS011;50308;47.438;-1.528;2023-12-20T01:44:30;6.00;;;1.83;;
64061;SDS011;50308;47.438;-1.528;2023-12-20T01:46:56;3.33;;;1.40;;
64061;SDS011;50308;47.438;-1.528;2023-12-20T01:49:22;7.13;;;1.60;;
64061;SDS011;50308;47.438;-1.528;2023-12-20T01:51:48;7.13;;;2.00;;
64061;SDS011;50308;47.438;-1.528;2023-12-20T01:54:14;5.18;;;1.30;;
64061;SDS011;50308;47.438;-1.528;2023-12-20T01:56:41;7.97;;;1.80;;
64061;SDS011;50308;47.438;-1.528;2023-12-20T01:59:07;6.15;;;1.80;;
64061;SDS011;50308;47.438;-1.528;2023-12-20T02:01:34;4.60;;;1.38;;
64061;SDS011;50308;47.438;-1.528;2023-12-20T02:04:00;6.25;;;1.35;;
64061;SDS011;50308;47.438;-1.528;2023-12-20T02:06:28;6.07;;;1.30;;
64061;SDS011;50308;47.438;-1.528;2023-12-20T02:08:58;6.72;;;1.55;;
64061;SDS011;50308;47.438;-1.528;2023-12-20T02:11:24;4.07;;;1.35;;
64061;SDS011;50308;47.438;-1.528;2023-12-20T02:13:51;6.53;;;1.92;;
64061;SDS011;50308;47.438;-1.528;2023-12-20T02:16:17;5.35;;;1.70;;
64061;SDS011;50308;47.438;-1.528;2023-12-20T02:18:43;5.55;;;1.40;;
64061;SDS011;50308;47.438;-1.528;2023-12-20T02:21:09;2.92;;;1.02;;
64061;SDS011;50308;47.438;-1.528;2023-12-20T02:23:35;5.30;;;1.50;;
64061;SDS011;50308;47.438;-1.528;2023-12-20T02:26:01;4.03;;;1.10;;
64061;SDS011;50308;47.438;-1.528;2023-12-20T02:28:28;5.65;;;1.27;;
64061;SDS011;50308;47.438;-1.528;2023-12-20T02:30:54;4.90;;;1.42;;
64061;SDS011;50308;47.438;-1.528;2023-12-20T02:33:20;3.63;;;1.33;;
64061;SDS011;50308;47.438;-1.528;2023-12-20T02:35:45;3.53;;;1.38;;
64061;SDS011;50308;47.438;-1.528;2023-12-20T02:38:11;5.85;;;1.42;;
64061;SDS011;50308;47.438;-1.528;2023-12-20T02:40:36;3.10;;;1.23;;
64061;SDS011;50308;47.438;-1.528;2023-12-20T02:43:02;4.85;;;1.30;;
64061;SDS011;50308;47.438;-1.528;2023-12-20T02:45:28;3.80;;;1.45;;
64061;SDS011;50308;47.438;-1.528;2023-12-20T02:47:54;5.90;;;1.63;;
64061;SDS011;50308;47.438;-1.528;2023-12-20T02:50:19;5.45;;;1.83;;
64061;SDS011;50308;47.438;-1.528;2023-12-20T02:52:45;6.70;;;1.42;;
64061;SDS011;50308;47.438;-1.528;2023-12-20T02:55:11;3.25;;;1.00;;
64061;SDS011;50308;47.438;-1.528;2023-12-20T02:57:36;5.47;;;1.40;;
64061;SDS011;50308;47.438;-1.528;2023-12-20T03:00:06;4.75;;;1.25;;
64061;SDS011;50308;47.438;-1.528;2023-12-20T03:02:34;5.43;;;1.55;;
64061;SDS011;50308;47.438;-1.528;2023-12-20T03:05:00;6.43;;;1.60;;
64061;SDS011;50308;47.438;-1.528;2023-12-20T03:07:25;5.38;;;1.45;;
64061;SDS011;50308;47.438;-1.528;2023-12-20T03:09:51;5.05;;;1.63;;
64061;SDS011;50308;47.438;-1.528;2023-12-20T03:12:17;7.72;;;1.48;;
64061;SDS011;50308;47.438;-1.528;2023-12-20T03:14:43;9.25;;;1.92;;
64061;SDS011;50308;47.438;-1.528;2023-12-20T03:17:09;3.88;;;1.42;;
64061;SDS011;50308;47.438;-1.528;2023-12-20T03:19:35;4.25;;;1.33;;
64061;SDS011;50308;47.438;-1.528;2023-12-20T03:22:01;4.20;;;1.55;;
64061;SDS011;50308;47.438;-1.528;2023-12-20T03:24:27;5.75;;;1.45;;
64061;SDS011;50308;47.438;-1.528;2023-12-20T03:26:52;6.15;;;1.73;;
64061;SDS011;50308;47.438;-1.528;2023-12-20T03:29:18;11.15;;;1.70;;
64061;SDS011;50308;47.438;-1.528;2023-12-20T03:31:44;4.80;;;1.58;;
64061;SDS011;50308;47.438;-1.528;2023-12-20T03:34:10;4.88;;;1.77;;
64061;SDS011;50308;47.438;-1.528;2023-12-20T03:36:36;8.15;;;1.75;;
64061;SDS011;50308;47.438;-1.528;2023-12-20T03:39:02;4.70;;;1.58;;
64061;SDS011;50308;47.438;-1.528;2023-12-20T03:41:28;5.35;;;1.67;;
64061;SDS011;50308;47.438;-1.528;2023-12-20T03:43:53;5.13;;;1.52;;
64061;SDS011;50308;47.438;-1.528;2023-12-20T03:46:19;3.22;;;1.50;;
64061;SDS011;50308;47.438;-1.528;2023-12-20T03:48:45;4.00;;;1.38;;
64061;SDS011;50308;47.438;-1.528;2023-12-20T03:51:10;2.67;;;1.70;;
64061;SDS011;50308;47.438;-1.528;2023-12-20T03:53:36;3.65;;;1.38;;
64061;SDS011;50308;47.438;-1.528;2023-12-20T03:56:02;6.38;;;1.55;;
64061;SDS011;50308;47.438;-1.528;2023-12-20T03:58:28;5.40;;;1.35;;
64061;SDS011;50308;47.438;-1.528;2023-12-20T04:00:54;3.97;;;1.40;;
64061;SDS011;50308;47.438;-1.528;2023-12-20T04:03:19;4.68;;;1.30;;
64061;SDS011;50308;47.438;-1.528;2023-12-20T04:05:45;7.03;;;1.45;;
64061;SDS011;50308;47.438;-1.528;2023-12-20T04:08:11;4.93;;;1.52;;
64061;SDS011;50308;47.438;-1.528;2023-12-20T04:10:37;6.63;;;2.00;;
64061;SDS011;50308;47.438;-1.528;2023-12-20T04:13:03;3.85;;;1.25;;
64061;SDS011;50308;47.438;-1.528;2023-12-20T04:15:29;3.50;;;1.40;;
64061;SDS011;50308;47.438;-1.528;2023-12-20T04:17:55;4.78;;;1.42;;
64061;SDS011;50308;47.438;-1.528;2023-12-20T04:20:20;3.92;;;1.40;;
64061;SDS011;50308;47.438;-1.528;2023-12-20T04:22:46;5.00;;;1.35;;
64061;SDS011;50308;47.438;-1.528;2023-12-20T04:25:11;6.85;;;1.67;;
64061;SDS011;50308;47.438;-1.528;2023-12-20T04:27:37;4.60;;;1.42;;
64061;SDS011;50308;47.438;-1.528;2023-12-20T04:30:03;6.65;;;1.60;;
64061;SDS011;50308;47.438;-1.528;2023-12-20T04:32:29;3.90;;;1.40;;
64061;SDS011;50308;47.438;-1.528;2023-12-20T04:34:55;4.28;;;1.77;;
64061;SDS011;50308;47.438;-1.528;2023-12-20T04:37:20;2.83;;;1.00;;
64061;SDS011;50308;47.438;-1.528;2023-12-20T04:39:46;3.97;;;1.40;;
64061;SDS011;50308;47.438;-1.528;2023-12-20T04:42:11;3.97;;;2.08;;
64061;SDS011;50308;47.438;-1.528;2023-12-20T04:44:37;7.43;;;1.88;;
64061;SDS011;50308;47.438;-1.528;2023-12-20T04:47:03;7.10;;;1.60;;
64061;SDS011;50308;47.438;-1.528;2023-12-20T04:49:29;2.20;;;1.23;;
64061;SDS011;50308;47.438;-1.528;2023-12-20T04:51:54;5.43;;;1.60;;
64061;SDS011;50308;47.438;-1.528;2023-12-20T04:54:20;4.57;;;1.65;;
64061;SDS011;50308;47.438;-1.528;2023-12-20T04:56:46;4.90;;;1.75;;
64061;SDS011;50308;47.438;-1.528;2023-12-20T04:59:12;2.95;;;1.70;;
64061;SDS011;50308;47.438;-1.528;2023-12-20T05:01:38;5.05;;;1.50;;
64061;SDS011;50308;47.438;-1.528;2023-12-20T05:04:04;5.07;;;1.50;;
64061;SDS011;50308;47.438;-1.528;2023-12-20T05:06:29;4.70;;;1.45;;
64061;SDS011;50308;47.438;-1.528;2023-12-20T05:08:55;6.80;;;1.58;;
64061;SDS011;50308;47.438;-1.528;2023-12-20T05:11:21;3.33;;;1.30;;
64061;SDS011;50308;47.438;-1.528;2023-12-20T05:13:46;3.80;;;1.60;;
64061;SDS011;50308;47.438;-1.528;2023-12-20T05:16:12;3.88;;;1.83;;
64061;SDS011;50308;47.438;-1.528;2023-12-20T05:18:39;3.25;;;1.42;;
64061;SDS011;50308;47.438;-1.528;2023-12-20T05:21:05;3.63;;;1.42;;
64061;SDS011;50308;47.438;-1.528;2023-12-20T05:23:31;4.82;;;1.50;;
64061;SDS011;50308;47.438;-1.528;2023-12-20T05:25:56;4.90;;;1.20;;
64061;SDS011;50308;47.438;-1.528;2023-12-20T05:28:23;5.07;;;1.70;;
64061;SDS011;50308;47.438;-1.528;2023-12-20T05:30:49;6.30;;;1.55;;
64061;SDS011;50308;47.438;-1.528;2023-12-20T05:33:15;4.85;;;1.80;;
64061;SDS011;50308;47.438;-1.528;2023-12-20T05:35:40;6.47;;;1.92;;
64061;SDS011;50308;47.438;-1.528;2023-12-20T05:38:06;8.07;;;2.20;;
64061;SDS011;50308;47.438;-1.528;2023-12-20T05:40:32;4.13;;;1.45;;
64061;SDS011;50308;47.438;-1.528;2023-12-20T05:42:57;5.80;;;1.35;;
64061;SDS011;50308;47.438;-1.528;2023-12-20T05:45:23;5.47;;;1.60;;
64061;SDS011;50308;47.438;-1.528;2023-12-20T05:47:49;4.22;;;1.40;;
64061;SDS011;50308;47.438;-1.528;2023-12-20T05:50:14;4.72;;;1.60;;
64061;SDS011;50308;47.438;-1.528;2023-12-20T05:52:40;5.88;;;1.40;;
64061;SDS011;50308;47.438;-1.528;2023-12-20T05:55:06;3.63;;;1.65;;
64061;SDS011;50308;47.438;-1.528;2023-12-20T05:57:32;4.53;;;1.48;;
64061;SDS011;50308;47.438;-1.528;2023-12-20T05:59:57;8.55;;;2.25;;
64061;SDS011;50308;47.438;-1.528;2023-12-20T06:02:23;4.15;;;1.98;;
64061;SDS011;50308;47.438;-1.528;2023-12-20T06:04:48;6.60;;;1.90;;
64061;SDS011;50308;47.438;-1.528;2023-12-20T06:07:14;5.90;;;2.80;;
64061;SDS011;50308;47.438;-1.528;2023-12-20T06:09:40;5.32;;;3.30;;
64061;SDS011;50308;47.438;-1.528;2023-12-20T06:12:06;6.75;;;2.97;;
64061;SDS011;50308;47.438;-1.528;2023-12-20T06:14:33;6.13;;;2.90;;
64061;SDS011;50308;47.438;-1.528;2023-12-20T06:16:59;5.97;;;2.70;;
64061;SDS011;50308;47.438;-1.528;2023-12-20T06:19:26;4.97;;;2.80;;
64061;SDS011;50308;47.438;-1.528;2023-12-20T06:21:52;7.18;;;2.60;;
64061;SDS011;50308;47.438;-1.528;2023-12-20T06:24:17;8.57;;;2.50;;
64061;SDS011;50308;47.438;-1.528;2023-12-20T06:26:43;4.53;;;2.60;;
64061;SDS011;50308;47.438;-1.528;2023-12-20T06:29:09;5.43;;;2.58;;
64061;SDS011;50308;47.438;-1.528;2023-12-20T06:31:34;4.05;;;2.10;;
64061;SDS011;50308;47.438;-1.528;2023-12-20T06:34:00;5.47;;;2.10;;
64061;SDS011;50308;47.438;-1.528;2023-12-20T06:36:26;4.95;;;2.03;;
64061;SDS011;50308;47.438;-1.528;2023-12-20T06:38:52;4.35;;;1.90;;
64061;SDS011;50308;47.438;-1.528;2023-12-20T06:41:18;5.15;;;1.95;;
64061;SDS011;50308;47.438;-1.528;2023-12-20T06:43:44;5.25;;;2.55;;
64061;SDS011;50308;47.438;-1.528;2023-12-20T06:46:09;8.18;;;3.10;;
64061;SDS011;50308;47.438;-1.528;2023-12-20T06:48:35;7.30;;;3.30;;
64061;SDS011;50308;47.438;-1.528;2023-12-20T06:51:01;8.60;;;3.53;;
64061;SDS011;50308;47.438;-1.528;2023-12-20T06:53:27;7.03;;;3.45;;
64061;SDS011;50308;47.438;-1.528;2023-12-20T06:55:53;7.05;;;3.30;;
64061;SDS011;50308;47.438;-1.528;2023-12-20T06:58:21;7.10;;;3.22;;
64061;SDS011;50308;47.438;-1.528;2023-12-20T07:00:47;6.63;;;3.35;;
64061;SDS011;50308;47.438;-1.528;2023-12-20T07:03:12;9.18;;;3.65;;
64061;SDS011;50308;47.438;-1.528;2023-12-20T07:05:38;8.40;;;3.05;;
64061;SDS011;50308;47.438;-1.528;2023-12-20T07:08:04;6.43;;;3.28;;
64061;SDS011;50308;47.438;-1.528;2023-12-20T07:10:30;6.85;;;3.00;;
64061;SDS011;50308;47.438;-1.528;2023-12-20T07:12:55;7.78;;;3.28;;
64061;SDS011;50308;47.438;-1.528;2023-12-20T07:15:22;5.47;;;2.67;;
64061;SDS011;50308;47.438;-1.528;2023-12-20T07:17:48;4.07;;;2.33;;
64061;SDS011;50308;47.438;-1.528;2023-12-20T07:20:13;5.18;;;2.50;;
64061;SDS011;50308;47.438;-1.528;2023-12-20T07:22:39;7.28;;;2.40;;
64061;SDS011;50308;47.438;-1.528;2023-12-20T07:25:05;4.43;;;2.50;;
64061;SDS011;50308;47.438;-1.528;2023-12-20T07:27:31;5.07;;;2.50;;
64061;SDS011;50308;47.438;-1.528;2023-12-20T07:29:57;4.55;;;2.28;;
64061;SDS011;50308;47.438;-1.528;2023-12-20T07:32:23;4.65;;;2.42;;
64061;SDS011;50308;47.438;-1.528;2023-12-20T07:34:48;4.85;;;2.90;;
64061;SDS011;50308;47.438;-1.528;2023-12-20T07:37:14;5.05;;;2.45;;
64061;SDS011;50308;47.438;-1.528;2023-12-20T07:39:40;4.20;;;2.58;;
64061;SDS011;50308;47.438;-1.528;2023-12-20T07:42:06;5.22;;;3.05;;
64061;SDS011;50308;47.438;-1.528;2023-12-20T07:44:32;7.63;;;3.65;;
64061;SDS011;50308;47.438;-1.528;2023-12-20T07:46:58;19.15;;;7.20;;
64061;SDS011;50308;47.438;-1.528;2023-12-20T07:49:24;18.13;;;7.60;;
64061;SDS011;50308;47.438;-1.528;2023-12-20T07:51:49;14.70;;;6.78;;
64061;SDS011;50308;47.438;-1.528;2023-12-20T07:54:15;13.35;;;6.25;;
64061;SDS011;50308;47.438;-1.528;2023-12-20T07:56:41;15.52;;;5.63;;
64061;SDS011;50308;47.438;-1.528;2023-12-20T07:59:07;15.80;;;5.95;;
64061;SDS011;50308;47.438;-1.528;2023-12-20T08:01:33;10.88;;;4.30;;
64061;SDS011;50308;47.438;-1.528;2023-12-20T08:03:58;9.07;;;4.00;;
64061;SDS011;50308;47.438;-1.528;2023-12-20T08:06:24;6.88;;;2.83;;
64061;SDS011;50308;47.438;-1.528;2023-12-20T08:08:50;7.13;;;2.83;;
64061;SDS011;50308;47.438;-1.528;2023-12-20T08:11:15;7.03;;;2.85;;
64061;SDS011;50308;47.438;-1.528;2023-12-20T08:13:41;5.03;;;2.58;;
64061;SDS011;50308;47.438;-1.528;2023-12-20T08:16:07;5.45;;;2.88;;
64061;SDS011;50308;47.438;-1.528;2023-12-20T08:18:33;3.72;;;2.28;;
64061;SDS011;50308;47.438;-1.528;2023-12-20T08:20:58;5.65;;;2.08;;
64061;SDS011;50308;47.438;-1.528;2023-12-20T08:23:25;3.78;;;1.90;;
64061;SDS011;50308;47.438;-1.528;2023-12-20T08:25:51;4.13;;;2.20;;
64061;SDS011;50308;47.438;-1.528;2023-12-20T08:28:16;9.07;;;2.35;;
64061;SDS011;50308;47.438;-1.528;2023-12-20T08:30:42;5.35;;;2.10;;
64061;SDS011;50308;47.438;-1.528;2023-12-20T08:33:08;3.50;;;2.10;;
64061;SDS011;50308;47.438;-1.528;2023-12-20T08:35:37;3.65;;;1.98;;
64061;SDS011;50308;47.438;-1.528;2023-12-20T08:38:04;5.25;;;1.98;;
64061;SDS011;50308;47.438;-1.528;2023-12-20T08:40:29;4.30;;;1.95;;
64061;SDS011;50308;47.438;-1.528;2023-12-20T08:42:55;6.00;;;2.10;;
64061;SDS011;50308;47.438;-1.528;2023-12-20T08:45:21;3.25;;;1.63;;
64061;SDS011;50308;47.438;-1.528;2023-12-20T08:47:46;4.13;;;1.70;;
64061;SDS011;50308;47.438;-1.528;2023-12-20T08:50:12;7.47;;;2.05;;
64061;SDS011;50308;47.438;-1.528;2023-12-20T08:52:38;37.13;;;17.83;;
64061;SDS011;50308;47.438;-1.528;2023-12-20T08:55:04;9.75;;;5.32;;
64061;SDS011;50308;47.438;-1.528;2023-12-20T08:57:30;17.75;;;10.82;;
64061;SDS011;50308;47.438;-1.528;2023-12-20T08:59:57;16.85;;;9.65;;
64061;SDS011;50308;47.438;-1.528;2023-12-20T09:02:22;17.80;;;9.32;;
64061;SDS011;50308;47.438;-1.528;2023-12-20T09:04:48;16.42;;;10.55;;
64061;SDS011;50308;47.438;-1.528;2023-12-20T09:07:23;13.73;;;7.45;;
64061;SDS011;50308;47.438;-1.528;2023-12-20T09:09:50;11.95;;;5.85;;
64061;SDS011;50308;47.438;-1.528;2023-12-20T09:12:17;10.32;;;6.32;;
64061;SDS011;50308;47.438;-1.528;2023-12-20T09:14:44;26.90;;;14.73;;
64061;SDS011;50308;47.438;-1.528;2023-12-20T09:17:10;15.40;;;7.53;;
64061;SDS011;50308;47.438;-1.528;2023-12-20T09:19:37;18.65;;;9.98;;
64061;SDS011;50308;47.438;-1.528;2023-12-20T09:22:03;17.40;;;7.90;;
64061;SDS011;50308;47.438;-1.528;2023-12-20T09:24:30;24.48;;;11.90;;
64061;SDS011;50308;47.438;-1.528;2023-12-20T09:26:55;13.80;;;7.63;;
64061;SDS011;50308;47.438;-1.528;2023-12-20T09:29:21;19.67;;;10.18;;
64061;SDS011;50308;47.438;-1.528;2023-12-20T09:31:47;18.58;;;8.70;;
64061;SDS011;50308;47.438;-1.528;2023-12-20T09:34:14;15.98;;;7.88;;
64061;SDS011;50308;47.438;-1.528;2023-12-20T09:36:40;11.77;;;6.60;;
64061;SDS011;50308;47.438;-1.528;2023-12-20T09:39:11;12.55;;;7.93;;
64061;SDS011;50308;47.438;-1.528;2023-12-20T09:41:44;13.15;;;5.82;;
64061;SDS011;50308;47.438;-1.528;2023-12-20T09:44:13;12.85;;;6.07;;
64061;SDS011;50308;47.438;-1.528;2023-12-20T09:46:43;8.02;;;4.85;;
64061;SDS011;50308;47.438;-1.528;2023-12-20T09:49:11;12.27;;;6.47;;
64061;SDS011;50308;47.438;-1.528;2023-12-20T09:51:38;11.02;;;5.40;;
64061;SDS011;50308;47.438;-1.528;2023-12-20T09:54:05;25.55;;;12.82;;
64061;SDS011;50308;47.438;-1.528;2023-12-20T09:56:31;15.73;;;8.63;;
64061;SDS011;50308;47.438;-1.528;2023-12-20T09:58:57;18.48;;;8.65;;
64061;SDS011;50308;47.438;-1.528;2023-12-20T10:01:26;14.73;;;7.53;;
64061;SDS011;50308;47.438;-1.528;2023-12-20T10:03:54;17.48;;;7.72;;
64061;SDS011;50308;47.438;-1.528;2023-12-20T10:06:20;12.60;;;5.85;;
64061;SDS011;50308;47.438;-1.528;2023-12-20T10:08:47;13.95;;;6.22;;
64061;SDS011;50308;47.438;-1.528;2023-12-20T10:11:12;17.08;;;7.38;;
64061;SDS011;50308;47.438;-1.528;2023-12-20T10:13:39;13.85;;;5.55;;
64061;SDS011;50308;47.438;-1.528;2023-12-20T10:16:09;13.73;;;7.55;;
64061;SDS011;50308;47.438;-1.528;2023-12-20T10:18:34;11.10;;;6.30;;
64061;SDS011;50308;47.438;-1.528;2023-12-20T10:21:01;17.08;;;7.03;;
64061;SDS011;50308;47.438;-1.528;2023-12-20T10:23:28;11.07;;;5.25;;
64061;SDS011;50308;47.438;-1.528;2023-12-20T10:25:57;13.38;;;5.50;;
64061;SDS011;50308;47.438;-1.528;2023-12-20T10:28:24;13.80;;;8.45;;
64061;SDS011;50308;47.438;-1.528;2023-12-20T10:30:55;8.90;;;5.10;;
64061;SDS011;50308;47.438;-1.528;2023-12-20T10:33:27;9.43;;;4.45;;
64061;SDS011;50308;47.438;-1.528;2023-12-20T10:35:53;20.05;;;8.90;;
64061;SDS011;50308;47.438;-1.528;2023-12-20T10:38:20;17.63;;;9.77;;
64061;SDS011;50308;47.438;-1.528;2023-12-20T10:40:47;15.45;;;5.60;;
64061;SDS011;50308;47.438;-1.528;2023-12-20T10:43:12;8.88;;;5.15;;
64061;SDS011;50308;47.438;-1.528;2023-12-20T10:45:39;12.05;;;5.93;;
64061;SDS011;50308;47.438;-1.528;2023-12-20T10:48:07;10.07;;;5.35;;
64061;SDS011;50308;47.438;-1.528;2023-12-20T10:50:40;11.80;;;5.40;;
64061;SDS011;50308;47.438;-1.528;2023-12-20T10:53:06;14.55;;;5.70;;
64061;SDS011;50308;47.438;-1.528;2023-12-20T10:55:32;11.35;;;5.00;;
64061;SDS011;50308;47.438;-1.528;2023-12-20T10:58:03;13.32;;;5.93;;
64061;SDS011;50308;47.438;-1.528;2023-12-20T11:00:33;14.32;;;4.90;;
64061;SDS011;50308;47.438;-1.528;2023-12-20T11:03:09;12.50;;;4.53;;
64061;SDS011;50308;47.438;-1.528;2023-12-20T11:08:13;9.00;;;4.88;;
64061;SDS011;50308;47.438;-1.528;2023-12-20T11:10:59;13.27;;;4.70;;
64061;SDS011;50308;47.438;-1.528;2023-12-20T11:13:34;10.93;;;4.28;;
64061;SDS011;50308;47.438;-1.528;2023-12-20T11:16:05;8.00;;;3.78;;
64061;SDS011;50308;47.438;-1.528;2023-12-20T11:18:31;12.68;;;4.18;;
64061;SDS011;50308;47.438;-1.528;2023-12-20T11:21:00;10.07;;;3.13;;
64061;SDS011;50308;47.438;-1.528;2023-12-20T11:23:35;9.65;;;3.40;;
64061;SDS011;50308;47.438;-1.528;2023-12-20T11:26:01;10.40;;;3.40;;
64061;SDS011;50308;47.438;-1.528;2023-12-20T11:28:28;10.45;;;3.65;;
64061;SDS011;50308;47.438;-1.528;2023-12-20T11:30:55;9.35;;;4.72;;
64061;SDS011;50308;47.438;-1.528;2023-12-20T11:33:25;12.07;;;5.07;;
64061;SDS011;50308;47.438;-1.528;2023-12-20T11:35:57;11.63;;;4.45;;
64061;SDS011;50308;47.438;-1.528;2023-12-20T11:38:25;19.90;;;9.05;;
64061;SDS011;50308;47.438;-1.528;2023-12-20T11:40:51;8.25;;;3.67;;
64061;SDS011;50308;47.438;-1.528;2023-12-20T11:43:38;21.00;;;11.45;;
64061;SDS011;50308;47.438;-1.528;2023-12-20T11:46:05;11.82;;;5.43;;
64061;SDS011;50308;47.438;-1.528;2023-12-20T11:48:34;12.77;;;5.10;;
64061;SDS011;50308;47.438;-1.528;2023-12-20T11:51:00;17.88;;;6.72;;
64061;SDS011;50308;47.438;-1.528;2023-12-20T11:53:27;41.97;;;18.52;;
64061;SDS011;50308;47.438;-1.528;2023-12-20T11:55:54;36.42;;;15.88;;
64061;SDS011;50308;47.438;-1.528;2023-12-20T11:58:19;28.35;;;14.70;;
64061;SDS011;50308;47.438;-1.528;2023-12-20T12:00:45;27.25;;;15.75;;
64061;SDS011;50308;47.438;-1.528;2023-12-20T12:03:14;19.95;;;9.40;;
64061;SDS011;50308;47.438;-1.528;2023-12-20T12:05:40;22.65;;;11.73;;
64061;SDS011;50308;47.438;-1.528;2023-12-20T12:08:06;22.92;;;12.82;;
64061;SDS011;50308;47.438;-1.528;2023-12-20T12:10:32;17.27;;;8.43;;
64061;SDS011;50308;47.438;-1.528;2023-12-20T12:12:58;19.00;;;7.88;;
64061;SDS011;50308;47.438;-1.528;2023-12-20T12:15:25;18.80;;;8.95;;
64061;SDS011;50308;47.438;-1.528;2023-12-20T12:17:54;14.70;;;6.13;;
64061;SDS011;50308;47.438;-1.528;2023-12-20T12:20:21;11.43;;;4.90;;
64061;SDS011;50308;47.438;-1.528;2023-12-20T12:22:57;11.55;;;4.70;;
64061;SDS011;50308;47.438;-1.528;2023-12-20T12:25:28;13.30;;;6.40;;
64061;SDS011;50308;47.438;-1.528;2023-12-20T12:27:56;18.30;;;8.63;;
64061;SDS011;50308;47.438;-1.528;2023-12-20T12:30:22;12.68;;;4.28;;
64061;SDS011;50308;47.438;-1.528;2023-12-20T12:32:48;15.50;;;4.68;;
64061;SDS011;50308;47.438;-1.528;2023-12-20T12:35:15;12.10;;;4.45;;
64061;SDS011;50308;47.438;-1.528;2023-12-20T12:37:41;7.15;;;3.60;;
64061;SDS011;50308;47.438;-1.528;2023-12-20T12:40:09;11.93;;;4.30;;
64061;SDS011;50308;47.438;-1.528;2023-12-20T12:42:36;12.57;;;3.47;;
64061;SDS011;50308;47.438;-1.528;2023-12-20T12:45:05;13.67;;;3.80;;
64061;SDS011;50308;47.438;-1.528;2023-12-20T12:47:32;15.00;;;4.90;;
64061;SDS011;50308;47.438;-1.528;2023-12-20T12:49:58;14.88;;;4.95;;
64061;SDS011;50308;47.438;-1.528;2023-12-20T12:52:23;11.80;;;4.03;;
64061;SDS011;50308;47.438;-1.528;2023-12-20T12:54:49;8.30;;;3.65;;
64061;SDS011;50308;47.438;-1.528;2023-12-20T12:57:15;7.82;;;3.42;;
64061;SDS011;50308;47.438;-1.528;2023-12-20T12:59:42;8.95;;;3.00;;
64061;SDS011;50308;47.438;-1.528;2023-12-20T13:02:10;8.20;;;2.85;;
64061;SDS011;50308;47.438;-1.528;2023-12-20T13:04:36;6.63;;;2.92;;
64061;SDS011;50308;47.438;-1.528;2023-12-20T13:07:02;10.93;;;2.97;;
64061;SDS011;50308;47.438;-1.528;2023-12-20T13:09:27;12.27;;;2.85;;
64061;SDS011;50308;47.438;-1.528;2023-12-20T13:11:53;12.40;;;3.72;;
64061;SDS011;50308;47.438;-1.528;2023-12-20T13:14:19;13.10;;;4.13;;
64061;SDS011;50308;47.438;-1.528;2023-12-20T13:16:44;13.00;;;3.70;;
64061;SDS011;50308;47.438;-1.528;2023-12-20T13:19:10;8.85;;;4.15;;
64061;SDS011;50308;47.438;-1.528;2023-12-20T13:21:36;9.48;;;4.50;;
64061;SDS011;50308;47.438;-1.528;2023-12-20T13:24:02;8.35;;;3.15;;
64061;SDS011;50308;47.438;-1.528;2023-12-20T13:26:28;10.30;;;3.42;;
64061;SDS011;50308;47.438;-1.528;2023-12-20T13:28:54;10.25;;;3.42;;
64061;SDS011;50308;47.438;-1.528;2023-12-20T13:31:20;7.57;;;3.00;;
64061;SDS011;50308;47.438;-1.528;2023-12-20T13:33:46;9.23;;;3.08;;
64061;SDS011;50308;47.438;-1.528;2023-12-20T13:36:11;8.88;;;2.30;;
64061;SDS011;50308;47.438;-1.528;2023-12-20T13:38:37;7.40;;;2.05;;
64061;SDS011;50308;47.438;-1.528;2023-12-20T13:41:03;10.63;;;2.65;;
64061;SDS011;50308;47.438;-1.528;2023-12-20T13:43:29;17.77;;;5.20;;
64061;SDS011;50308;47.438;-1.528;2023-12-20T13:45:59;13.03;;;4.63;;
64061;SDS011;50308;47.438;-1.528;2023-12-20T13:48:25;11.77;;;3.63;;
64061;SDS011;50308;47.438;-1.528;2023-12-20T13:50:50;10.27;;;4.07;;
64061;SDS011;50308;47.438;-1.528;2023-12-20T13:53:16;13.55;;;3.58;;
64061;SDS011;50308;47.438;-1.528;2023-12-20T13:55:42;10.68;;;3.35;;
64061;SDS011;50308;47.438;-1.528;2023-12-20T13:58:07;9.52;;;3.65;;
64061;SDS011;50308;47.438;-1.528;2023-12-20T14:00:35;11.98;;;4.65;;
64061;SDS011;50308;47.438;-1.528;2023-12-20T14:03:01;11.45;;;4.45;;
64061;SDS011;50308;47.438;-1.528;2023-12-20T14:05:28;11.52;;;4.20;;
64061;SDS011;50308;47.438;-1.528;2023-12-20T14:07:54;7.70;;;3.65;;
64061;SDS011;50308;47.438;-1.528;2023-12-20T14:10:22;9.93;;;3.90;;
64061;SDS011;50308;47.438;-1.528;2023-12-20T14:12:48;6.50;;;3.03;;
64061;SDS011;50308;47.438;-1.528;2023-12-20T14:15:14;9.07;;;3.00;;
64061;SDS011;50308;47.438;-1.528;2023-12-20T14:17:40;11.18;;;3.45;;
64061;SDS011;50308;47.438;-1.528;2023-12-20T14:20:07;5.50;;;2.45;;
64061;SDS011;50308;47.438;-1.528;2023-12-20T14:22:33;11.05;;;2.90;;
64061;SDS011;50308;47.438;-1.528;2023-12-20T14:25:00;7.60;;;2.30;;
64061;SDS011;50308;47.438;-1.528;2023-12-20T14:27:26;5.80;;;2.28;;